Shonkin, Montana
Current Conditions -  °F | °C
As of 2:56 AM on Saturday 22 Nov 2014 (Local Time) from KGFA Reporting Station
Scattered Clouds Scattered Clouds  
Wind Chill: 36°   Ceiling: Unl
Heat Index: 45°   Visibility: 10mi
Dew Point: 30°   Wind: 22mph
Humidity: 56%   Direction: 210°SSW
Pressure: 29.33"   Gusts: 35mph
Location:  47.5922°N, 110.795°W
Report Text: KGFA 220956Z AUTO 21019G30KT 10SM SCT190 07/M01 A2933 RMK AO2 PK WND 21030/25 SLP946 T00701012
Loading
Personal Weather Stations






























Interactive Weather Map New forecast layout! Learn more

10-Day Weather Forecast

Advertisements
Track Severe Weather on mobile